createdAt,value
2023-03-21T00:00:29.157Z,100480.91
2023-03-21T00:02:55.905Z,100481.72
2023-03-21T00:05:22.915Z,100480.06
2023-03-21T00:07:49.449Z,100478.44
2023-03-21T00:10:23.951Z,100477.88
2023-03-21T00:12:56.558Z,100482.31
2023-03-21T00:15:27.561Z,100482.06
2023-03-21T00:17:57.706Z,100483.69
2023-03-21T00:20:24.476Z,100481.19
2023-03-21T00:22:51.026Z,100471.81
2023-03-21T00:25:17.691Z,100479.56
2023-03-21T00:28:00.972Z,100479.31
2023-03-21T00:30:30.857Z,100468.00
2023-03-21T00:32:58.477Z,100470.72
2023-03-21T00:35:57.996Z,100468.00
2023-03-21T00:38:15.231Z,100468.84
2023-03-21T00:40:48.776Z,100464.97
2023-03-21T00:43:17.210Z,100455.06
2023-03-21T00:45:45.341Z,100463.59
2023-03-21T00:48:12.602Z,100460.25
2023-03-21T00:50:40.118Z,100463.03
2023-03-21T00:53:07.201Z,100462.41
2023-03-21T00:55:34.186Z,100457.47
2023-03-21T00:58:02.401Z,100463.47
2023-03-21T01:00:29.897Z,100463.19
2023-03-21T01:03:04.458Z,100460.19
2023-03-21T01:05:40.469Z,100464.03
2023-03-21T01:08:20.669Z,100465.13
2023-03-21T01:10:51.808Z,100460.19
2023-03-21T01:13:20.898Z,100462.41
2023-03-21T01:15:54.848Z,100459.63
2023-03-21T01:18:26.029Z,100456.28
2023-03-21T01:20:54.222Z,100460.69
2023-03-21T01:23:20.926Z,100452.97
2023-03-21T01:25:49.496Z,100450.72
2023-03-21T01:28:16.447Z,100441.63
2023-03-21T01:30:47.934Z,100440.25
2023-03-21T01:33:15.083Z,100428.41
2023-03-21T01:35:50.485Z,100425.09
2023-03-21T01:38:21.900Z,100424.34
2023-03-21T01:40:49.848Z,100423.03
2023-03-21T01:43:34.951Z,100414.72
2023-03-21T01:46:20.819Z,100418.84
2023-03-21T01:49:02.502Z,100426.59
2023-03-21T01:51:32.334Z,100419.16
2023-03-21T01:53:59.150Z,100429.38
2023-03-21T01:56:32.877Z,100426.34
2023-03-21T01:59:07.814Z,100429.13
2023-03-21T02:01:34.621Z,100423.03
2023-03-21T02:04:02.182Z,100428.81
2023-03-21T02:06:36.593Z,100428.81
2023-03-21T02:09:09.906Z,100436.56
2023-03-21T02:11:37.985Z,100427.50
2023-03-21T02:14:07.065Z,100426.13
2023-03-21T02:16:43.125Z,100418.97
2023-03-21T02:19:53.769Z,100429.72
2023-03-21T02:22:41.628Z,100422.84
2023-03-21T02:25:21.764Z,100430.00
2023-03-21T02:28:21.729Z,100438.84
2023-03-21T02:31:24.738Z,100440.47
2023-03-21T02:34:13.248Z,100430.84
2023-03-21T02:37:00.660Z,100427.81
2023-03-21T02:39:56.131Z,100426.16
2023-03-21T02:42:59.492Z,100426.97
2023-03-21T02:45:34.494Z,100434.13
2023-03-21T02:48:07.016Z,100436.34
2023-03-21T02:50:33.695Z,100434.97
2023-03-21T02:53:07.204Z,100425.31
2023-03-21T02:55:36.614Z,100433.28
2023-03-21T02:58:13.304Z,100427.25
2023-03-21T03:00:40.452Z,100431.63
2023-03-21T03:03:10.470Z,100433.59
2023-03-21T03:05:47.168Z,100431.38
2023-03-21T03:09:01.483Z,100433.84
2023-03-21T03:11:33.180Z,100433.84
2023-03-21T03:17:30.596Z,100424.47
2023-03-21T03:20:22.176Z,100433.84
2023-03-21T03:22:54.831Z,100420.34
2023-03-21T03:25:41.517Z,100426.94
2023-03-21T03:28:11.333Z,100425.56
2023-03-21T03:30:46.555Z,100420.88
2023-03-21T03:33:19.877Z,100423.38
2023-03-21T03:35:55.756Z,100428.59
2023-03-21T03:38:27.365Z,100428.59
2023-03-21T03:41:02.391Z,100437.16
2023-03-21T03:43:41.419Z,100444.84
2023-03-21T03:46:17.942Z,100436.59
2023-03-21T03:49:07.914Z,100440.44
2023-03-21T03:51:52.486Z,100437.72
2023-03-21T03:54:37.036Z,100433.84
2023-03-21T03:57:05.582Z,100438.25
2023-03-21T03:59:35.780Z,100426.13
2023-03-21T04:02:02.525Z,100437.94
2023-03-21T04:04:29.174Z,100437.16
2023-03-21T04:06:57.981Z,100431.38
2023-03-21T04:09:37.442Z,100436.31
2023-03-21T04:12:10.101Z,100435.50
2023-03-21T04:14:44.359Z,100425.59
2023-03-21T04:17:11.562Z,100427.53
2023-03-21T04:19:38.367Z,100431.66
2023-03-21T04:22:04.858Z,100439.63
2023-03-21T04:24:31.562Z,100432.72
2023-03-21T04:26:58.093Z,100441.28
2023-03-21T04:29:24.602Z,100444.56
2023-03-21T04:31:51.186Z,100449.56
2023-03-21T04:34:17.719Z,100450.63
2023-03-21T04:36:44.299Z,100452.00
2023-03-21T04:39:10.984Z,100458.91
2023-03-21T04:41:38.970Z,100451.47
2023-03-21T04:44:05.862Z,100445.69
2023-03-21T04:46:32.752Z,100452.84
2023-03-21T04:48:59.603Z,100456.97
2023-03-21T04:51:26.357Z,100447.63
2023-03-21T04:53:53.043Z,100441.53
2023-03-21T04:56:19.534Z,100443.22
2023-03-21T04:58:46.041Z,100437.44
2023-03-21T05:01:12.640Z,100437.97
2023-03-21T05:03:40.502Z,100445.72
2023-03-21T05:06:08.516Z,100444.88
2023-03-21T05:08:38.071Z,100452.00
2023-03-21T05:11:05.568Z,100455.34
2023-03-21T05:13:32.102Z,100458.94
2023-03-21T05:15:58.671Z,100456.44
2023-03-21T05:18:25.415Z,100454.25
2023-03-21T05:20:53.537Z,100455.34
2023-03-21T05:23:21.386Z,100452.88
2023-03-21T05:25:48.208Z,100458.06
2023-03-21T05:28:14.835Z,100456.44
2023-03-21T05:30:41.568Z,100451.75
2023-03-21T05:33:08.165Z,100453.41
2023-03-21T05:35:34.946Z,100463.03
2023-03-21T05:38:01.758Z,100469.38
2023-03-21T05:40:28.267Z,100459.19
2023-03-21T05:42:54.928Z,100464.63
2023-03-21T05:45:21.480Z,100463.03
2023-03-21T05:47:48.009Z,100462.75
2023-03-21T05:50:14.869Z,100460.84
2023-03-21T05:52:41.430Z,100461.94
2023-03-21T05:55:08.535Z,100458.91
2023-03-21T05:57:35.211Z,100469.66
2023-03-21T06:00:02.094Z,100460.03
2023-03-21T06:02:28.858Z,100466.34
2023-03-21T06:04:55.427Z,100458.09
2023-03-21T06:07:21.933Z,100461.16
2023-03-21T06:09:48.572Z,100466.91
2023-03-21T06:12:15.240Z,100466.63
2023-03-21T06:14:41.826Z,100457.50
2023-03-21T06:17:08.390Z,100460.78
2023-03-21T06:19:34.989Z,100468.41
2023-03-21T06:22:01.527Z,100456.81
2023-03-21T06:24:28.080Z,100467.44
2023-03-21T06:26:54.620Z,100478.88
2023-03-21T06:29:21.355Z,100469.41
2023-03-21T06:31:48.085Z,100487.06
2023-03-21T06:34:14.814Z,100487.69
2023-03-21T06:36:41.393Z,100486.50
2023-03-21T06:39:10.737Z,100487.38
2023-03-21T06:41:37.659Z,100486.16
2023-03-21T06:44:08.080Z,100490.53
2023-03-21T06:46:35.701Z,100488.63
2023-03-21T06:49:04.216Z,100483.88
2023-03-21T06:51:32.550Z,100483.56
2023-03-21T06:53:59.624Z,100483.09
2023-03-21T06:56:26.251Z,100473.38
2023-03-21T06:58:52.820Z,100483.00
2023-03-21T07:01:19.503Z,100483.16
2023-03-21T07:03:46.023Z,100473.22
2023-03-21T07:06:12.730Z,100485.41
2023-03-21T07:08:41.359Z,100492.41
2023-03-21T07:11:09.567Z,100480.13
2023-03-21T07:13:36.631Z,100488.81
2023-03-21T07:16:03.792Z,100494.84
2023-03-21T07:18:30.491Z,100481.03
2023-03-21T07:20:57.684Z,100485.81
2023-03-21T07:23:28.234Z,100487.38
2023-03-21T07:25:55.096Z,100486.19
2023-03-21T07:28:23.058Z,100486.16
2023-03-21T07:30:55.777Z,100498.41
2023-03-21T07:33:22.934Z,100492.72
2023-03-21T07:35:51.184Z,100493.03
2023-03-21T07:38:18.350Z,100496.06
2023-03-21T07:40:46.464Z,100492.94
2023-03-21T07:43:13.197Z,100493.63
2023-03-21T07:45:40.235Z,100486.63
2023-03-21T07:48:07.187Z,100494.44
2023-03-21T07:50:33.837Z,100503.88
2023-03-21T07:53:03.190Z,100491.16
2023-03-21T07:55:29.787Z,100493.63
2023-03-21T07:57:56.302Z,100500.38
2023-03-21T08:00:23.390Z,100500.78
2023-03-21T08:02:58.728Z,100504.06
2023-03-21T08:05:33.180Z,100515.09
2023-03-21T08:07:59.922Z,100514.56
2023-03-21T08:10:27.025Z,100520.59
2023-03-21T08:12:54.212Z,100521.03
2023-03-21T08:15:20.963Z,100516.09
2023-03-21T08:17:47.591Z,100508.97
2023-03-21T08:20:18.135Z,100510.66
2023-03-21T08:22:45.064Z,100516.22
2023-03-21T08:25:13.323Z,100518.94
2023-03-21T08:27:44.123Z,100516.19
2023-03-21T08:30:12.582Z,100522.44
2023-03-21T08:32:40.237Z,100512.50
2023-03-21T08:35:08.873Z,100514.91
2023-03-21T08:37:36.649Z,100524.69
2023-03-21T08:40:05.302Z,100517.97
2023-03-21T08:42:31.866Z,100511.22
2023-03-21T08:44:58.436Z,100516.44
2023-03-21T08:47:24.983Z,100510.91
2023-03-21T08:49:51.732Z,100523.44
2023-03-21T08:52:21.309Z,100518.91
2023-03-21T08:54:48.786Z,100517.66
2023-03-21T08:57:18.800Z,100521.94
2023-03-21T08:59:46.110Z,100523.06
2023-03-21T09:02:17.153Z,100517.16
2023-03-21T09:04:44.525Z,100510.72
2023-03-21T09:07:12.349Z,100512.78
2023-03-21T09:09:39.357Z,100507.16
2023-03-21T09:12:06.164Z,100512.69
2023-03-21T09:14:33.187Z,100503.53
2023-03-21T09:16:59.724Z,100504.34
2023-03-21T09:19:26.356Z,100502.94
2023-03-21T09:21:52.964Z,100512.72
2023-03-21T09:24:20.371Z,100514.03
2023-03-21T09:26:47.270Z,100501.59
2023-03-21T09:29:13.966Z,100502.88
2023-03-21T09:31:40.664Z,100496.44
2023-03-21T09:34:07.269Z,100493.97
2023-03-21T09:36:33.923Z,100492.34
2023-03-21T09:39:00.972Z,100499.66
2023-03-21T09:41:32.385Z,100501.78
2023-03-21T09:44:34.338Z,100495.34
2023-03-21T09:47:23.853Z,100487.75
2023-03-21T09:50:13.679Z,100488.06
2023-03-21T09:52:50.126Z,100489.09
2023-03-21T09:55:26.363Z,100484.56
2023-03-21T09:58:21.681Z,100490.50
2023-03-21T10:00:57.605Z,100479.25
2023-03-21T10:03:29.022Z,100475.50
2023-03-21T10:05:59.410Z,100491.84
2023-03-21T10:08:30.023Z,100478.53
2023-03-21T10:11:07.044Z,100466.00
2023-03-21T10:13:39.378Z,100479.19
2023-03-21T10:16:27.638Z,100474.06
2023-03-21T10:18:55.277Z,100472.59
2023-03-21T10:21:51.276Z,100467.47
2023-03-21T10:24:13.833Z,100468.19
2023-03-21T10:26:42.909Z,100471.66
2023-03-21T10:29:17.217Z,100470.00
2023-03-21T10:31:47.475Z,100468.25
2023-03-21T10:34:44.755Z,100466.31
2023-03-21T10:37:14.360Z,100465.88
2023-03-21T10:39:49.499Z,100453.03
2023-03-21T10:42:22.441Z,100456.78
2023-03-21T10:44:50.884Z,100460.88
2023-03-21T10:47:27.175Z,100458.94
2023-03-21T10:50:11.285Z,100457.00
2023-03-21T10:52:49.559Z,100462.75
2023-03-21T10:55:19.077Z,100456.78
2023-03-21T10:57:47.383Z,100449.75
2023-03-21T11:00:21.536Z,100454.72
2023-03-21T11:02:50.998Z,100460.72
2023-03-21T11:05:25.542Z,100447.88
2023-03-21T11:08:11.866Z,100439.84
2023-03-21T11:10:52.525Z,100447.09
2023-03-21T11:13:41.471Z,100429.00
2023-03-21T11:16:32.060Z,100423.22
2023-03-21T11:19:04.665Z,100421.56
2023-03-21T11:21:39.177Z,100421.50
2023-03-21T11:24:07.622Z,100426.13
2023-03-21T11:26:37.656Z,100418.13
2023-03-21T11:29:38.515Z,100413.00
2023-03-21T11:32:26.190Z,100405.91
2023-03-21T11:35:22.054Z,100402.63
2023-03-21T11:37:54.911Z,100399.84
2023-03-21T11:40:31.098Z,100394.56
2023-03-21T11:43:18.411Z,100389.47
2023-03-21T11:45:58.924Z,100388.94
2023-03-21T11:48:25.941Z,100385.56
2023-03-21T11:51:04.021Z,100386.75
2023-03-21T11:53:40.196Z,100381.59
2023-03-21T11:56:27.273Z,100370.16
2023-03-21T11:59:07.596Z,100379.34
2023-03-21T12:02:12.059Z,100373.63
2023-03-21T12:04:41.848Z,100365.81
2023-03-21T12:07:11.336Z,100366.25
2023-03-21T12:09:51.705Z,100365.16
2023-03-21T12:12:36.542Z,100359.41
2023-03-21T12:15:19.993Z,100355.28
2023-03-21T12:18:01.681Z,100354.44
2023-03-21T12:20:39.305Z,100350.72
2023-03-21T12:23:20.903Z,100348.56
2023-03-21T12:26:03.646Z,100342.53
2023-03-21T12:28:45.316Z,100342.78
2023-03-21T12:31:35.014Z,100339.25
2023-03-21T12:34:35.728Z,100334.69
2023-03-21T12:37:05.149Z,100331.22
2023-03-21T12:39:36.300Z,100325.44
2023-03-21T12:42:40.048Z,100321.75
2023-03-21T12:45:24.686Z,100320.28
2023-03-21T12:48:14.445Z,100324.94
2023-03-21T12:50:41.601Z,100305.22
2023-03-21T12:53:32.742Z,100310.97
2023-03-21T12:56:05.126Z,100292.22
2023-03-21T12:58:43.024Z,100304.31
2023-03-21T13:01:11.879Z,100289.09
2023-03-21T13:03:42.574Z,100293.28
2023-03-21T13:06:21.042Z,100283.56
2023-03-21T13:09:18.114Z,100278.00
2023-03-21T13:11:47.980Z,100274.00
2023-03-21T13:14:22.875Z,100278.78
2023-03-21T13:16:53.364Z,100275.34
2023-03-21T13:19:38.644Z,100277.16
2023-03-21T13:22:10.790Z,100268.19
2023-03-21T13:25:09.419Z,100268.81
2023-03-21T13:27:38.570Z,100275.72
2023-03-21T13:30:14.380Z,100268.56
2023-03-21T13:32:43.942Z,100266.75
2023-03-21T13:35:18.721Z,100273.53
2023-03-21T13:37:57.132Z,100268.44
2023-03-21T13:40:35.083Z,100263.19
2023-03-21T13:43:02.038Z,100256.06
2023-03-21T13:45:52.129Z,100261.13
2023-03-21T13:48:30.878Z,100261.28
2023-03-21T13:51:03.237Z,100255.41
2023-03-21T13:53:37.496Z,100253.78
2023-03-21T13:56:14.660Z,100256.31
2023-03-21T13:58:44.045Z,100254.66
2023-03-21T14:01:10.608Z,100251.19
2023-03-21T14:03:38.048Z,100245.78
2023-03-21T14:06:05.996Z,100245.69
2023-03-21T14:08:38.514Z,100243.69
2023-03-21T14:11:09.310Z,100240.47
2023-03-21T14:13:48.370Z,100238.31
2023-03-21T14:16:18.857Z,100246.28
2023-03-21T14:18:56.231Z,100248.91
2023-03-21T14:21:29.211Z,100244.66
2023-03-21T14:24:07.386Z,100251.06
2023-03-21T14:26:42.198Z,100249.19
2023-03-21T14:29:25.026Z,100240.03
2023-03-21T14:31:54.566Z,100247.81
2023-03-21T14:34:22.995Z,100250.09
2023-03-21T14:36:57.506Z,100235.53
2023-03-21T14:39:30.997Z,100246.47
2023-03-21T14:42:04.102Z,100246.19
2023-03-21T14:44:44.140Z,100240.59
2023-03-21T14:47:24.804Z,100245.03
2023-03-21T14:49:52.005Z,100238.66
2023-03-21T14:52:37.095Z,100247.06
2023-03-21T14:55:14.963Z,100241.34
2023-03-21T14:57:42.189Z,100242.88
2023-03-21T15:00:23.726Z,100245.59
2023-03-21T15:02:51.890Z,100244.09
2023-03-21T15:05:32.325Z,100243.25
2023-03-21T15:08:02.059Z,100240.22
2023-03-21T15:10:30.938Z,100238.44
2023-03-21T15:13:01.179Z,100239.88
2023-03-21T15:15:31.884Z,100239.28
2023-03-21T15:18:05.140Z,100241.16
2023-03-21T15:20:35.505Z,100242.09
2023-03-21T15:23:07.064Z,100241.25
2023-03-21T15:25:36.104Z,100237.41
2023-03-21T15:28:05.389Z,100238.97
2023-03-21T15:30:33.008Z,100230.22
2023-03-21T15:33:07.721Z,100239.09
2023-03-21T15:35:46.124Z,100234.78
2023-03-21T15:38:40.818Z,100237.34
2023-03-21T15:41:25.145Z,100239.91
2023-03-21T15:44:10.337Z,100242.03
2023-03-21T15:46:46.427Z,100239.09
2023-03-21T15:49:12.923Z,100237.34
2023-03-21T15:51:41.925Z,100241.88
2023-03-21T15:54:17.799Z,100237.81
2023-03-21T15:56:44.755Z,100243.41
2023-03-21T15:59:16.309Z,100244.69
2023-03-21T16:01:47.521Z,100242.91
2023-03-21T16:04:14.519Z,100242.78
2023-03-21T16:07:13.338Z,100248.09
2023-03-21T16:09:48.321Z,100251.34
2023-03-21T16:12:17.498Z,100249.25
2023-03-21T16:14:45.254Z,100256.88
2023-03-21T16:17:38.122Z,100268.63
2023-03-21T16:20:17.828Z,100263.25
2023-03-21T16:22:44.405Z,100264.75
2023-03-21T16:25:12.135Z,100260.91
2023-03-21T16:27:38.969Z,100268.00
2023-03-21T16:30:06.741Z,100268.69
2023-03-21T16:32:33.760Z,100264.03
2023-03-21T16:35:01.234Z,100264.84
2023-03-21T16:37:27.812Z,100269.91
2023-03-21T16:39:54.440Z,100270.91
2023-03-21T16:42:20.991Z,100270.59
2023-03-21T16:44:47.558Z,100276.38
2023-03-21T16:47:19.495Z,100267.84
2023-03-21T16:49:46.993Z,100282.97
2023-03-21T16:52:14.590Z,100282.03
2023-03-21T16:54:42.048Z,100290.13
2023-03-21T16:57:21.097Z,100291.47
2023-03-21T16:59:47.724Z,100294.25
2023-03-21T17:02:15.699Z,100289.22
2023-03-21T17:04:42.580Z,100293.84
2023-03-21T17:07:15.171Z,100299.66
2023-03-21T17:09:43.234Z,100297.50
2023-03-21T17:12:15.687Z,100301.19
2023-03-21T17:14:44.541Z,100307.09
2023-03-21T17:17:13.121Z,100312.38
2023-03-21T17:19:43.613Z,100306.19
2023-03-21T17:22:12.571Z,100305.91
2023-03-21T17:24:40.870Z,100315.59
2023-03-21T17:27:11.458Z,100323.75
2023-03-21T17:29:38.229Z,100315.22
2023-03-21T17:32:05.008Z,100326.88
2023-03-21T17:34:31.630Z,100330.34
2023-03-21T17:36:59.004Z,100326.38
2023-03-21T17:39:27.103Z,100331.59
2023-03-21T17:41:54.437Z,100329.00
2023-03-21T17:44:21.078Z,100328.66
2023-03-21T17:46:50.309Z,100331.44
2023-03-21T17:49:18.117Z,100329.94
2023-03-21T17:51:44.636Z,100338.47
2023-03-21T17:54:11.128Z,100335.16
2023-03-21T17:56:37.694Z,100338.13
2023-03-21T17:59:07.173Z,100346.47
2023-03-21T18:01:34.728Z,100346.59
2023-03-21T18:04:04.082Z,100342.81
2023-03-21T18:06:32.840Z,100346.25
2023-03-21T18:09:00.456Z,100353.63
2023-03-21T18:11:27.580Z,100359.66
2023-03-21T18:14:06.556Z,100351.25
2023-03-21T18:16:40.774Z,100346.53
2023-03-21T18:19:07.333Z,100349.63
2023-03-21T18:21:35.776Z,100349.28
2023-03-21T18:24:02.466Z,100352.22
2023-03-21T18:26:31.103Z,100352.81
2023-03-21T18:29:57.017Z,100351.16
2023-03-21T18:32:05.093Z,100355.97
2023-03-21T18:34:33.073Z,100361.25
2023-03-21T18:36:59.757Z,100361.25
2023-03-21T18:39:30.193Z,100361.06
2023-03-21T18:41:58.016Z,100363.47
2023-03-21T18:44:25.053Z,100362.09
2023-03-21T18:46:52.303Z,100365.00
2023-03-21T18:50:02.114Z,100369.22
2023-03-21T18:52:06.080Z,100371.47
2023-03-21T18:54:32.738Z,100366.19
2023-03-21T18:57:34.607Z,100376.91
2023-03-21T18:59:48.137Z,100381.13
2023-03-21T19:02:15.238Z,100374.84
2023-03-21T19:04:45.082Z,100371.56
2023-03-21T19:07:12.115Z,100381.47
2023-03-21T19:10:05.198Z,100375.94
2023-03-21T19:12:28.122Z,100368.75
2023-03-21T19:14:55.247Z,100373.28
2023-03-21T19:18:26.157Z,100375.94
2023-03-21T19:20:11.526Z,100382.25
2023-03-21T19:22:38.128Z,100379.06
2023-03-21T19:25:05.586Z,100374.13
2023-03-21T19:27:38.291Z,100382.38
2023-03-21T19:30:14.480Z,100377.03
2023-03-21T19:32:42.943Z,100385.75
2023-03-21T19:35:10.449Z,100383.00
2023-03-21T19:37:37.011Z,100383.63
2023-03-21T19:40:08.046Z,100391.94
2023-03-21T19:42:34.745Z,100396.34
2023-03-21T19:45:01.395Z,100406.66
2023-03-21T19:47:27.959Z,100399.03
2023-03-21T19:52:41.268Z,100403.53
2023-03-21T19:55:08.384Z,100409.72
2023-03-21T19:57:35.752Z,100403.53
2023-03-21T20:00:02.436Z,100402.53
2023-03-21T20:02:37.132Z,100400.28
2023-03-21T20:05:05.902Z,100414.66
2023-03-21T20:07:32.983Z,100410.25
2023-03-21T20:10:00.247Z,100403.34
2023-03-21T20:12:26.915Z,100407.88
2023-03-21T20:15:01.010Z,100410.44
2023-03-21T20:17:37.900Z,100416.00
2023-03-21T20:20:04.869Z,100418.16
2023-03-21T20:23:03.382Z,100421.06
2023-03-21T20:25:21.628Z,100421.56
2023-03-21T20:28:12.720Z,100420.44
2023-03-21T20:30:49.419Z,100423.59
2023-03-21T20:33:16.215Z,100419.38
2023-03-21T20:38:30.048Z,100422.25
2023-03-21T20:41:00.917Z,100423.69
2023-03-21T20:46:15.808Z,100419.00
2023-03-21T20:48:42.378Z,100419.63
2023-03-21T20:54:00.813Z,100427.53
2023-03-21T20:56:27.501Z,100424.03
2023-03-21T20:59:17.695Z,100431.03
2023-03-21T21:01:40.612Z,100434.19
2023-03-21T21:04:07.216Z,100429.16
2023-03-21T21:06:33.993Z,100434.81
2023-03-21T21:09:00.642Z,100430.56
2023-03-21T21:12:04.986Z,100426.78
2023-03-21T21:14:17.972Z,100424.72
2023-03-21T21:16:44.969Z,100427.28
2023-03-21T21:19:11.670Z,100429.66
2023-03-21T21:21:38.326Z,100430.88
2023-03-21T21:24:07.504Z,100435.91
2023-03-21T21:26:35.203Z,100429.25
2023-03-21T21:29:01.845Z,100425.75
2023-03-21T21:31:28.529Z,100438.69
2023-03-21T21:33:55.126Z,100431.06
2023-03-21T21:36:21.775Z,100437.66
2023-03-21T21:38:48.439Z,100429.00
2023-03-21T21:41:19.330Z,100439.31
2023-03-21T21:43:46.654Z,100439.91
2023-03-21T21:46:13.953Z,100433.56
2023-03-21T21:48:41.920Z,100436.22
2023-03-21T21:51:09.015Z,100441.97
2023-03-21T21:53:36.251Z,100438.69
2023-03-21T21:56:04.319Z,100439.91
2023-03-21T21:58:30.882Z,100443.81
2023-03-21T22:01:01.424Z,100441.03
2023-03-21T22:03:28.181Z,100446.69
2023-03-21T22:06:02.064Z,100443.16
2023-03-21T22:08:28.656Z,100444.31
2023-03-21T22:10:55.281Z,100447.69
2023-03-21T22:13:21.972Z,100448.22
2023-03-21T22:15:48.527Z,100451.00
2023-03-21T22:18:15.085Z,100453.44
2023-03-21T22:20:41.629Z,100447.50
2023-03-21T22:23:08.176Z,100452.09
2023-03-21T22:25:34.781Z,100458.19
2023-03-21T22:28:01.311Z,100458.69
2023-03-21T22:30:27.955Z,100463.19
2023-03-21T22:33:08.565Z,100455.94
2023-03-21T22:35:36.100Z,100453.84
2023-03-21T22:38:02.794Z,100456.00
2023-03-21T22:40:29.367Z,100453.44
2023-03-21T22:42:55.864Z,100452.00
2023-03-21T22:45:22.429Z,100457.56
2023-03-21T22:47:49.016Z,100456.94
2023-03-21T22:50:15.572Z,100462.22
2023-03-21T22:52:42.099Z,100473.88
2023-03-21T22:55:08.946Z,100471.34
2023-03-21T22:57:35.699Z,100468.06
2023-03-21T23:00:02.640Z,100472.56
2023-03-21T23:02:29.191Z,100472.56
2023-03-21T23:04:55.754Z,100468.06
2023-03-21T23:07:22.346Z,100479.16
2023-03-21T23:09:49.047Z,100479.97
2023-03-21T23:12:15.666Z,100474.22
2023-03-21T23:14:42.352Z,100482.00
2023-03-21T23:17:08.924Z,100474.38
2023-03-21T23:19:35.681Z,100471.91
2023-03-21T23:22:02.214Z,100477.47
2023-03-21T23:24:28.780Z,100476.94
2023-03-21T23:26:55.409Z,100468.50
2023-03-21T23:29:22.007Z,100470.72
2023-03-21T23:31:48.622Z,100478.63
2023-03-21T23:34:15.364Z,100484.19
2023-03-21T23:36:42.032Z,100477.56
2023-03-21T23:39:09.243Z,100486.75
2023-03-21T23:41:35.835Z,100474.31
2023-03-21T23:44:02.924Z,100472.72
2023-03-21T23:46:29.516Z,100480.22
2023-03-21T23:48:56.092Z,100474.53
2023-03-21T23:51:22.939Z,100479.31
2023-03-21T23:53:49.773Z,100482.41
2023-03-21T23:56:21.598Z,100479.03
2023-03-21T23:58:48.937Z,100481.06
